Time;durP1;ratioP1;P1;durP2;ratioP2;P2;SDS_P1;SDS_P2;PMS_P1;PMS_P2;Temp;Humidity;BMP_temperature;BMP_pressure;BME280_temperature;BME280_humidity;BME280_pressure;Samples;Min_cycle;Max_cycle;Signal;HPM_P1;HPM_P2
2022/04/02 00:02:20;;;;;;;4.68;1.77;;;;;;;3.99;55.65;99581.91;5091398;28;20055;-58
2022/04/02 00:04:47;;;;;;;3.85;1.70;;;;;;;3.98;56.12;99581.09;5091220;28;20097;-60
2022/04/02 00:07:13;;;;;;;3.17;1.52;;;;;;;3.96;56.23;99571.63;5090838;28;20044;-58
2022/04/02 00:09:40;;;;;;;3.38;1.90;;;;;;;3.95;56.14;99577.72;5091023;28;20106;-59
2022/04/02 00:12:08;;;;;;;2.75;1.38;;;;;;;3.94;56.40;99589.03;5091060;28;20047;-59
2022/04/02 00:14:35;;;;;;;2.38;1.17;;;;;;;3.93;55.73;99583.00;5091097;28;20052;-59
2022/04/02 00:17:03;;;;;;;4.40;1.70;;;;;;;3.91;55.64;99579.56;5091078;28;20056;-59
2022/04/02 00:19:30;;;;;;;4.32;1.67;;;;;;;3.90;56.09;99577.88;5091296;28;20722;-56
2022/04/02 00:21:57;;;;;;;2.70;1.65;;;;;;;3.89;55.81;99579.63;5091027;28;20078;-60
2022/04/02 00:24:24;;;;;;;4.72;1.40;;;;;;;3.89;55.80;99577.00;5089878;28;20055;-57
2022/04/02 00:26:51;;;;;;;2.30;1.52;;;;;;;3.88;56.11;99577.91;5089728;28;20397;-60
2022/04/02 00:29:17;;;;;;;2.25;1.63;;;;;;;3.89;55.93;99586.59;5090887;28;20058;-61
2022/04/02 00:31:44;;;;;;;4.35;1.73;;;;;;;3.87;55.86;99577.97;5091093;28;20056;-60
2022/04/02 00:34:11;;;;;;;3.08;1.70;;;;;;;3.87;56.03;99583.16;5090887;28;20480;-59
2022/04/02 00:36:38;;;;;;;3.67;1.60;;;;;;;3.85;55.72;99570.19;5090818;28;20055;-60
2022/04/02 00:39:07;;;;;;;2.50;1.80;;;;;;;3.86;56.00;99578.88;5089554;28;20415;-59
2022/04/02 00:41:34;;;;;;;3.45;1.70;;;;;;;3.86;55.99;99581.47;5090880;28;20059;-60
2022/04/02 00:44:17;;;;;;;4.60;1.85;;;;;;;3.82;54.93;99575.53;5089453;28;20048;-60
2022/04/02 00:46:44;;;;;;;3.17;1.73;;;;;;;3.84;55.59;99578.06;5090492;28;20052;-59
2022/04/02 00:49:13;;;;;;;2.83;1.27;;;;;;;3.84;56.01;99578.91;5090541;28;20048;-60
2022/04/02 00:51:43;;;;;;;2.72;1.52;;;;;;;3.84;56.22;99578.91;5072661;28;20438;-59
2022/04/02 00:54:13;;;;;;;5.47;1.65;;;;;;;3.82;55.55;99580.72;5089469;28;20055;-59
2022/04/02 00:56:41;;;;;;;4.28;1.73;;;;;;;3.82;55.96;99591.16;5089461;28;20607;-59
2022/04/02 00:59:10;;;;;;;3.90;1.90;;;;;;;3.82;55.44;99595.50;5090502;28;20055;-60
2022/04/02 01:01:37;;;;;;;5.55;1.50;;;;;;;3.81;55.90;99596.41;5089087;28;20106;-60
2022/04/02 01:04:06;;;;;;;3.50;1.75;;;;;;;3.77;55.50;99587.81;5090559;28;20458;-58
2022/04/02 01:06:33;;;;;;;2.17;1.70;;;;;;;3.77;55.93;99593.88;5090211;28;20048;-61
2022/04/02 01:09:02;;;;;;;2.35;1.58;;;;;;;3.79;55.90;99591.22;5090161;28;20052;-59
2022/04/02 01:11:42;;;;;;;4.35;1.40;;;;;;;3.74;54.56;99593.97;5090197;28;20102;-60
2022/04/02 01:14:10;;;;;;;3.22;1.60;;;;;;;3.79;55.96;99604.25;5089068;28;20051;-60
2022/04/02 01:16:37;;;;;;;3.70;1.80;;;;;;;3.78;56.08;99594.75;5087055;28;20127;-61
2022/04/02 01:19:05;;;;;;;2.97;1.65;;;;;;;3.79;55.97;99614.66;5083443;28;20073;-58
2022/04/02 01:21:33;;;;;;;3.13;1.60;;;;;;;3.79;55.76;99606.84;5088816;28;20041;-59
2022/04/02 01:24:00;;;;;;;3.30;1.60;;;;;;;3.80;55.68;99605.09;5089319;28;20553;-59
2022/04/02 01:26:27;;;;;;;3.60;1.70;;;;;;;3.80;55.47;99610.28;5088914;28;20052;-59
2022/04/02 01:28:56;;;;;;;2.85;1.80;;;;;;;3.79;55.89;99609.47;5090140;28;20079;-60
2022/04/02 01:31:24;;;;;;;5.90;1.80;;;;;;;3.80;55.54;99602.47;5088624;28;20051;-58
2022/04/02 01:33:52;;;;;;;3.42;1.67;;;;;;;3.80;55.93;99610.28;5090065;28;20139;-60
2022/04/02 01:36:20;;;;;;;1.80;1.38;;;;;;;3.80;55.53;99608.56;5088811;28;20055;-59
2022/04/02 01:38:47;;;;;;;3.65;1.50;;;;;;;3.79;56.05;99601.66;5090151;28;20098;-60
2022/04/02 01:41:14;;;;;;;5.22;1.55;;;;;;;3.80;55.51;99610.28;5089720;28;20109;-60
2022/04/02 01:43:41;;;;;;;6.65;2.00;;;;;;;3.80;55.88;99610.28;5088754;28;20048;-60
2022/04/02 01:46:09;;;;;;;2.03;1.63;;;;;;;3.80;55.66;99618.09;5088715;28;20094;-59
2022/04/02 01:48:36;;;;;;;2.35;1.40;;;;;;;3.81;55.83;99617.22;5088661;28;20056;-60
2022/04/02 01:51:03;;;;;;;3.15;1.50;;;;;;;3.81;55.86;99609.41;5089957;28;20048;-59
2022/04/02 01:53:31;;;;;;;2.88;1.58;;;;;;;3.81;55.91;99617.22;5089972;28;20059;-60
2022/04/02 01:55:58;;;;;;;4.15;1.60;;;;;;;3.82;55.71;99616.31;5089857;28;20052;-60
2022/04/02 01:58:25;;;;;;;2.42;1.70;;;;;;;3.83;55.85;99620.63;5088681;28;20488;-59
2022/04/02 02:00:53;;;;;;;2.85;1.83;;;;;;;3.82;56.09;99618.94;5088280;28;20055;-60
2022/04/02 02:03:20;;;;;;;6.72;1.85;;;;;;;3.82;55.96;99624.13;5088402;28;20044;-60
2022/04/02 02:05:47;;;;;;;4.05;1.80;;;;;;;3.81;55.90;99618.06;5089734;28;20048;-60
2022/04/02 02:08:13;;;;;;;2.03;1.42;;;;;;;3.81;56.00;99617.22;5088774;28;20060;-59
2022/04/02 02:10:40;;;;;;;3.22;1.48;;;;;;;3.80;55.86;99625.91;5089651;28;20625;-57
2022/04/02 02:13:07;;;;;;;6.10;1.70;;;;;;;3.78;55.73;99628.59;5089510;28;20063;-60
2022/04/02 02:15:33;;;;;;;3.40;1.77;;;;;;;3.80;55.79;99636.34;5089512;28;20048;-60
2022/04/02 02:18:00;;;;;;;5.55;1.77;;;;;;;3.78;55.99;99626.81;5089930;28;20055;-57
2022/04/02 02:20:26;;;;;;;3.40;1.80;;;;;;;3.77;56.55;99630.34;5089506;28;20048;-59
2022/04/02 02:22:53;;;;;;;3.95;1.70;;;;;;;3.77;56.09;99630.34;5089380;28;20100;-59
2022/04/02 02:25:21;;;;;;;3.85;1.88;;;;;;;3.78;56.28;99633.81;5089647;28;20039;-59
2022/04/02 02:27:47;;;;;;;3.70;2.00;;;;;;;3.78;56.37;99633.81;5088111;28;20048;-59
2022/04/02 02:30:15;;;;;;;4.05;1.70;;;;;;;3.79;56.09;99640.72;5089078;28;20068;-59
2022/04/02 02:32:42;;;;;;;1.92;1.52;;;;;;;3.77;56.12;99634.69;5092023;28;20408;-60
2022/04/02 02:38:08;;;;;;;1.60;1.50;;;;;;;3.73;54.81;99639.13;5092973;28;20488;-60
2022/04/02 02:40:36;;;;;;;3.30;1.83;;;;;;;3.75;56.42;99636.50;5091689;28;20048;-60
2022/04/02 02:43:05;;;;;;;4.32;1.55;;;;;;;3.75;55.88;99642.56;5092946;28;20113;-59
2022/04/02 02:45:32;;;;;;;4.13;1.92;;;;;;;3.74;56.25;99648.66;5093185;28;20051;-59
2022/04/02 02:48:00;;;;;;;4.40;1.88;;;;;;;3.73;56.37;99640.88;5091691;28;20411;-59
2022/04/02 02:50:32;;;;;;;3.95;1.70;;;;;;;3.73;56.15;99646.94;5092583;28;20044;-60
2022/04/02 02:52:59;;;;;;;2.70;1.52;;;;;;;3.73;56.21;99659.97;5091578;28;20488;-60
2022/04/02 02:55:26;;;;;;;3.75;1.88;;;;;;;3.72;56.11;99649.59;5092720;28;20117;-59
2022/04/02 02:57:53;;;;;;;4.32;1.70;;;;;;;3.72;56.02;99660.88;5092887;28;20047;-58
2022/04/02 03:00:19;;;;;;;3.08;1.95;;;;;;;3.71;56.38;99659.16;5092641;28;20048;-60
2022/04/02 03:02:46;;;;;;;3.50;2.20;;;;;;;3.70;56.30;99657.44;5092704;28;20085;-59
2022/04/02 03:05:15;;;;;;;3.40;1.80;;;;;;;3.69;56.04;99653.16;5092516;28;20044;-60
2022/04/02 03:07:50;;;;;;;4.10;1.92;;;;;;;3.70;55.90;99654.84;5091014;28;20484;-60
2022/04/02 03:10:19;;;;;;;4.35;2.03;;;;;;;3.70;55.90;99651.41;5091394;28;20147;-61
2022/04/02 03:12:47;;;;;;;3.95;1.60;;;;;;;3.70;55.93;99660.03;5091185;28;20048;-58
2022/04/02 03:15:18;;;;;;;5.30;2.00;;;;;;;3.70;56.10;99657.44;5091325;28;20063;-59
2022/04/02 03:17:45;;;;;;;3.90;1.85;;;;;;;3.70;56.29;99662.66;5092334;28;20105;-59
2022/04/02 03:20:13;;;;;;;2.72;1.90;;;;;;;3.71;56.84;99661.78;5091220;28;20060;-59
2022/04/02 03:22:43;;;;;;;2.40;1.75;;;;;;;3.71;56.65;99660.91;5092185;28;20098;-59
2022/04/02 03:25:14;;;;;;;3.40;1.73;;;;;;;3.69;56.01;99668.75;5092307;28;20044;-59
2022/04/02 03:27:43;;;;;;;2.75;1.85;;;;;;;3.70;56.56;99670.47;5091200;28;20774;-58
2022/04/02 03:30:12;;;;;;;5.00;1.80;;;;;;;3.70;56.83;99674.84;5090706;28;20135;-61
2022/04/02 03:32:39;;;;;;;3.10;2.00;;;;;;;3.70;56.36;99678.28;5091949;28;20048;-57
2022/04/02 03:35:07;;;;;;;4.25;2.20;;;;;;;3.71;56.78;99686.94;5090491;28;20754;-58
2022/04/02 03:37:38;;;;;;;5.22;1.95;;;;;;;3.71;56.78;99685.22;5092275;28;20377;-61
2022/04/02 03:40:07;;;;;;;3.67;1.77;;;;;;;3.71;56.57;99686.94;5091946;28;20048;-57
2022/04/02 03:42:37;;;;;;;3.70;2.15;;;;;;;3.70;56.59;99687.84;5090878;28;20048;-59
2022/04/02 03:45:06;;;;;;;6.82;2.33;;;;;;;3.70;56.69;99683.47;5090818;28;20052;-60
2022/04/02 03:47:32;;;;;;;5.00;2.20;;;;;;;3.70;56.82;99691.28;5090282;28;20112;-60
2022/04/02 03:49:59;;;;;;;3.78;1.80;;;;;;;3.69;56.63;99694.78;5090604;28;20572;-60
2022/04/02 03:52:27;;;;;;;3.42;1.88;;;;;;;3.69;56.65;99696.53;5090386;28;20058;-61
2022/04/02 03:54:54;;;;;;;4.53;2.00;;;;;;;3.69;56.65;99699.13;5090275;28;20052;-60
2022/04/02 03:57:21;;;;;;;4.38;2.00;;;;;;;3.68;56.60;99706.13;5090115;28;20108;-60
2022/04/02 03:59:48;;;;;;;3.53;2.10;;;;;;;3.68;56.61;99706.13;5091172;28;20139;-60
2022/04/02 04:02:15;;;;;;;3.80;1.80;;;;;;;3.68;57.00;99703.50;5089971;28;20128;-60
2022/04/02 04:04:42;;;;;;;2.67;1.67;;;;;;;3.67;56.62;99704.41;5091413;28;20431;-61
2022/04/02 04:07:09;;;;;;;4.90;2.20;;;;;;;3.67;56.94;99707.03;5073010;28;20488;-60
2022/04/02 04:09:40;;;;;;;2.80;1.90;;;;;;;3.67;56.78;99703.56;5091100;28;20400;-57
2022/04/02 04:12:10;;;;;;;3.47;1.80;;;;;;;3.65;56.39;99708.81;5091164;28;20105;-59
2022/04/02 04:14:37;;;;;;;4.25;2.47;;;;;;;3.66;57.06;99705.28;5090052;28;20055;-59
2022/04/02 04:17:04;;;;;;;3.35;2.08;;;;;;;3.67;57.04;99717.44;5091365;28;20117;-60
2022/04/02 04:19:31;;;;;;;4.78;2.35;;;;;;;3.68;57.41;99707.84;5090887;28;20117;-60
2022/04/02 04:21:58;;;;;;;4.75;2.10;;;;;;;3.68;56.96;99718.25;5089736;28;20093;-57
2022/04/02 04:24:25;;;;;;;5.95;2.47;;;;;;;3.68;57.45;99713.06;5090828;28;20100;-60
2022/04/02 04:26:51;;;;;;;2.75;2.10;;;;;;;3.68;57.18;99720.88;5090697;28;20085;-59
2022/04/02 04:29:18;;;;;;;3.05;2.10;;;;;;;3.66;57.06;99726.13;5090645;28;20063;-59
2022/04/02 04:31:44;;;;;;;5.55;2.20;;;;;;;3.67;57.18;99724.38;5090982;28;20101;-59
2022/04/02 04:34:11;;;;;;;3.40;2.20;;;;;;;3.68;57.34;99724.34;5090915;28;20055;-60
2022/04/02 04:36:38;;;;;;;4.20;2.22;;;;;;;3.68;57.09;99729.53;5090778;28;20047;-59
2022/04/02 04:39:05;;;;;;;11.77;2.50;;;;;;;3.67;57.42;99737.41;5090672;28;20052;-59
2022/04/02 04:41:32;;;;;;;4.90;2.55;;;;;;;3.67;57.39;99740.88;5090692;28;20404;-59
2022/04/02 04:43:59;;;;;;;5.57;2.17;;;;;;;3.68;57.56;99739.97;5090930;28;20127;-60
2022/04/02 04:46:28;;;;;;;4.22;2.50;;;;;;;3.67;57.89;99735.66;5090124;28;20642;-60
2022/04/02 04:48:56;;;;;;;3.80;2.22;;;;;;;3.66;57.65;99739.13;5090379;28;20086;-60
2022/04/02 04:51:23;;;;;;;3.92;2.28;;;;;;;3.65;57.41;99743.50;5089995;28;20051;-60
2022/04/02 04:53:50;;;;;;;4.47;2.55;;;;;;;3.65;57.36;99753.06;5090072;28;20074;-59
2022/04/02 04:56:17;;;;;;;3.08;2.17;;;;;;;3.65;57.61;99755.66;5089263;28;20055;-60
2022/04/02 04:58:44;;;;;;;6.30;2.75;;;;;;;3.65;57.75;99761.72;5090584;28;20055;-59
2022/04/02 05:01:12;;;;;;;6.80;2.30;;;;;;;3.64;57.59;99753.97;5088849;28;20059;-60
2022/04/02 05:03:40;;;;;;;6.38;2.33;;;;;;;3.64;57.84;99754.81;5089343;28;20098;-58
2022/04/02 05:06:11;;;;;;;4.15;2.35;;;;;;;3.63;56.89;99757.47;5089177;28;20094;-60
2022/04/02 05:08:38;;;;;;;2.92;2.20;;;;;;;3.64;57.63;99759.16;5088927;28;20575;-59
2022/04/02 05:11:05;;;;;;;3.55;2.38;;;;;;;3.63;57.73;99760.91;5090031;28;20561;-57
2022/04/02 05:13:32;;;;;;;4.25;2.00;;;;;;;3.63;57.59;99754.84;5088939;28;20058;-61
2022/04/02 05:15:59;;;;;;;2.38;2.00;;;;;;;3.63;57.66;99763.50;5090319;28;20121;-59
2022/04/02 05:18:26;;;;;;;4.63;2.50;;;;;;;3.64;57.88;99764.38;5090247;28;20417;-58
2022/04/02 05:20:53;;;;;;;5.53;2.60;;;;;;;3.64;57.35;99765.22;5089004;28;20508;-60
2022/04/02 05:23:19;;;;;;;3.63;2.42;;;;;;;3.65;57.70;99766.06;5089741;28;20044;-58
2022/04/02 05:25:46;;;;;;;4.95;2.20;;;;;;;3.66;57.18;99754.75;5090225;28;20687;-57
2022/04/02 05:28:12;;;;;;;6.10;2.63;;;;;;;3.67;57.08;99753.00;5089938;28;20075;-60
2022/04/02 05:30:40;;;;;;;4.80;2.47;;;;;;;3.69;57.34;99770.28;5089601;28;20097;-59
2022/04/02 05:33:07;;;;;;;4.65;2.22;;;;;;;3.70;56.75;99776.38;5090145;28;20075;-59
2022/04/02 05:35:54;;;;;;;3.63;2.35;;;;;;;3.71;56.85;99775.47;5089136;28;20056;-60
2022/04/02 05:38:20;;;;;;;4.57;2.10;;;;;;;3.71;56.81;99773.72;5090025;28;20663;-61
2022/04/02 05:40:47;;;;;;;3.38;2.30;;;;;;;3.71;56.79;99778.94;5089301;28;20093;-61
2022/04/02 05:43:13;;;;;;;3.45;2.22;;;;;;;3.71;56.46;99786.75;5090166;28;20056;-60
2022/04/02 05:45:41;;;;;;;4.07;2.20;;;;;;;3.72;56.67;99788.44;5090332;28;20439;-59
2022/04/02 05:48:07;;;;;;;4.40;2.28;;;;;;;3.72;56.53;99796.25;5089587;28;20044;-59
2022/04/02 05:50:34;;;;;;;5.45;2.75;;;;;;;3.74;56.96;99791.00;5089638;28;20097;-59
2022/04/02 05:53:03;;;;;;;4.22;2.28;;;;;;;3.75;56.93;99790.97;5090105;28;20089;-59
2022/04/02 05:55:31;;;;;;;4.63;2.50;;;;;;;3.77;56.78;99793.50;5090036;28;20067;-58
2022/04/02 05:57:58;;;;;;;5.03;2.67;;;;;;;3.77;56.94;99802.19;5088646;28;20102;-59
2022/04/02 06:00:25;;;;;;;4.43;2.40;;;;;;;3.79;57.13;99799.53;5088257;28;20052;-59
2022/04/02 06:03:00;;;;;;;5.85;2.78;;;;;;;3.81;57.40;99804.69;5090131;28;20083;-60
2022/04/02 06:05:28;;;;;;;4.07;2.65;;;;;;;3.81;57.46;99807.31;5090531;28;20075;-59
2022/04/02 06:07:55;;;;;;;5.20;2.75;;;;;;;3.81;57.56;99810.75;5093445;28;20083;-59
2022/04/02 06:10:21;;;;;;;4.90;2.90;;;;;;;3.82;57.33;99809.00;5093286;28;20117;-59
2022/04/02 06:12:50;;;;;;;5.18;3.00;;;;;;;3.84;57.51;99813.28;5093604;28;20048;-59
2022/04/02 06:15:18;;;;;;;5.88;3.08;;;;;;;3.85;57.91;99830.59;5093505;28;20090;-59
2022/04/02 06:17:44;;;;;;;4.53;3.10;;;;;;;3.87;57.59;99817.53;5092176;28;20112;-59
2022/04/02 06:20:11;;;;;;;5.75;2.95;;;;;;;3.89;58.16;99821.81;5092758;28;20446;-59
2022/04/02 06:22:37;;;;;;;10.65;3.70;;;;;;;3.92;58.03;99826.06;5093383;28;20044;-61
2022/04/02 06:25:04;;;;;;;5.13;3.45;;;;;;;3.95;58.09;99831.19;5093230;28;20077;-62
2022/04/02 06:27:31;;;;;;;6.10;3.22;;;;;;;3.98;58.10;99838.06;5093257;28;20056;-60
2022/04/02 06:29:58;;;;;;;6.68;3.60;;;;;;;4.01;58.28;99838.81;5092735;28;20496;-58
2022/04/02 06:32:25;;;;;;;6.13;3.30;;;;;;;4.03;58.16;99831.84;5092994;28;20055;-60
2022/04/02 06:34:52;;;;;;;6.88;3.97;;;;;;;4.07;58.59;99844.78;5092032;28;20052;-57
2022/04/02 06:37:19;;;;;;;6.03;3.95;;;;;;;4.11;58.45;99841.19;5093085;28;20052;-57
2022/04/02 06:39:47;;;;;;;5.97;3.30;;;;;;;4.12;58.64;99848.09;5093110;28;20086;-58
2022/04/02 06:42:14;;;;;;;5.05;3.17;;;;;;;4.15;58.69;99848.84;5092075;28;20055;-59
2022/04/02 06:44:41;;;;;;;6.60;3.70;;;;;;;4.18;58.63;99853.13;5092938;28;20052;-59
2022/04/02 06:47:07;;;;;;;8.63;4.00;;;;;;;4.22;58.93;99859.13;5091891;28;20105;-59
2022/04/02 06:49:34;;;;;;;6.00;3.30;;;;;;;4.26;58.88;99866.78;5093009;28;20129;-59
2022/04/02 06:52:00;;;;;;;4.82;3.42;;;;;;;4.30;58.75;99865.78;5092883;28;20040;-60
2022/04/02 06:54:27;;;;;;;6.03;3.25;;;;;;;4.36;58.76;99863.91;5092781;28;20085;-59
2022/04/02 06:56:55;;;;;;;6.35;3.85;;;;;;;4.40;58.70;99862.91;5093037;28;20112;-61
2022/04/02 06:59:22;;;;;;;7.55;3.90;;;;;;;4.44;58.71;99869.75;5092763;28;20052;-59
2022/04/02 07:01:49;;;;;;;7.20;3.60;;;;;;;4.47;58.58;99869.66;5093116;28;20051;-59
2022/04/02 07:04:16;;;;;;;7.05;4.05;;;;;;;4.52;58.63;99866.94;5092832;28;20048;-60
2022/04/02 07:06:45;;;;;;;5.20;3.60;;;;;;;4.56;58.54;99860.69;5092566;28;20094;-60
2022/04/02 07:09:14;;;;;;;5.20;2.90;;;;;;;4.60;58.35;99869.28;5091093;28;20075;-59
2022/04/02 07:11:41;;;;;;;5.75;3.22;;;;;;;4.63;58.38;99867.44;5091017;28;20435;-57
2022/04/02 07:14:09;;;;;;;5.95;3.92;;;;;;;4.65;58.32;99863.03;5091007;28;20102;-59
2022/04/02 07:16:36;;;;;;;4.75;3.28;;;;;;;4.69;58.35;99869.00;5086896;28;20056;-59
2022/04/02 07:19:03;;;;;;;5.28;3.40;;;;;;;4.72;58.31;99878.50;5079229;28;20036;-61
2022/04/02 07:21:31;;;;;;;6.22;3.42;;;;;;;4.75;58.02;99871.41;5091821;28;20118;-61
2022/04/02 07:23:59;;;;;;;6.50;3.58;;;;;;;4.79;58.39;99880.84;5091893;28;20048;-60
2022/04/02 07:26:26;;;;;;;4.88;3.40;;;;;;;4.83;58.27;99892.91;5092138;28;20079;-60
2022/04/02 07:28:53;;;;;;;5.25;3.45;;;;;;;4.88;58.33;99892.75;5092412;28;20098;-61
2022/04/02 07:31:20;;;;;;;6.07;3.85;;;;;;;4.93;58.21;99892.59;5090891;28;20097;-58
2022/04/02 07:33:47;;;;;;;5.45;3.35;;;;;;;4.98;58.36;99892.47;5092157;28;20409;-61
2022/04/02 07:36:29;;;;;;;6.50;3.90;;;;;;;5.01;57.32;99892.38;5091930;28;20044;-59
2022/04/02 07:39:19;;;;;;;6.97;3.53;;;;;;;5.05;57.17;99892.22;5090887;28;20048;-59
2022/04/02 07:41:49;;;;;;;5.07;3.50;;;;;;;5.15;57.37;99894.53;5090787;28;20048;-60
2022/04/02 07:44:21;;;;;;;8.13;3.40;;;;;;;5.19;57.62;99901.34;5092009;28;20044;-59
2022/04/02 07:46:48;;;;;;;5.43;3.38;;;;;;;5.24;57.95;99899.47;5091673;28;20052;-60
2022/04/02 07:49:20;;;;;;;5.50;3.40;;;;;;;5.27;57.40;99901.97;5091526;28;20056;-59
2022/04/02 07:51:53;;;;;;;7.65;3.63;;;;;;;5.32;57.33;99901.81;5090680;28;20105;-59
2022/04/02 07:54:33;;;;;;;;;;;;;;;5.37;57.12;99904.28;5091051;28;20101;-61
2022/04/02 07:57:03;;;;;;;5.18;3.00;;;;;;;5.43;57.17;99910.16;5090628;28;19920;-60
2022/04/02 07:59:40;;;;;;;5.35;3.05;;;;;;;5.45;56.97;99910.97;5091474;28;20101;-60
2022/04/02 08:02:36;;;;;;;5.40;3.47;;;;;;;5.53;57.82;99917.69;5090386;28;20064;-60
2022/04/02 08:05:06;;;;;;;6.20;3.30;;;;;;;5.57;57.00;99917.53;5090463;28;20044;-60
2022/04/02 08:07:34;;;;;;;7.28;3.70;;;;;;;5.63;57.61;99913.84;5091083;28;20762;-59
2022/04/02 08:10:05;;;;;;;5.95;3.97;;;;;;;5.69;57.14;99907.56;5089528;28;20052;-59
2022/04/02 08:12:36;;;;;;;4.82;3.00;;;;;;;5.74;57.26;99914.34;5091238;28;20105;-60
2022/04/02 08:15:22;;;;;;;7.18;2.95;;;;;;;5.80;56.01;99907.19;5090099;28;20051;-60
2022/04/02 08:17:55;;;;;;;5.13;3.25;;;;;;;5.86;56.82;99915.69;5090042;28;20121;-59
2022/04/02 08:20:22;;;;;;;3.90;3.03;;;;;;;5.94;57.41;99917.19;5090839;28;20051;-60
2022/04/02 08:22:50;;;;;;;5.47;3.08;;;;;;;5.98;57.02;99924.00;5091391;28;20063;-59
2022/04/02 08:25:17;;;;;;;5.35;3.28;;;;;;;6.03;56.98;99922.09;5090580;28;20481;-59
2022/04/02 08:28:02;;;;;;;5.10;3.20;;;;;;;6.09;56.71;99911.41;5090931;28;20056;-60
2022/04/02 08:30:31;;;;;;;5.55;3.30;;;;;;;6.16;56.49;99926.91;5090395;28;20052;-59
2022/04/02 08:33:22;;;;;;;5.40;3.30;;;;;;;6.18;55.50;99928.53;5090675;28;20056;-61
2022/04/02 08:36:16;;;;;;;4.95;3.20;;;;;;;6.22;54.69;99930.16;5090607;28;20113;-60
2022/04/02 08:38:51;;;;;;;;;;;;;;;6.31;55.53;99934.16;5091158;28;20101;-61
2022/04/02 08:41:49;;;;;;;4.20;2.67;;;;;;;6.34;55.06;99931.44;5090251;28;19924;-59
2022/04/02 08:44:36;;;;;;;4.35;3.22;;;;;;;6.37;54.47;99939.19;5090631;28;20048;-59
2022/04/02 08:47:12;;;;;;;3.08;2.67;;;;;;;6.40;55.36;99951.28;5090591;28;20799;-59
2022/04/02 08:49:40;;;;;;;3.70;2.50;;;;;;;6.44;55.96;99942.44;5090391;28;20131;-60
2022/04/02 08:52:34;;;;;;;4.25;2.70;;;;;;;6.43;54.15;99945.94;5090672;28;20081;-61
2022/04/02 08:55:13;;;;;;;4.78;2.88;;;;;;;6.48;54.44;99945.78;5090486;28;20121;-60
2022/04/02 08:57:52;;;;;;;3.67;2.70;;;;;;;6.47;53.92;99946.69;5090361;28;20385;-61
2022/04/02 09:00:28;;;;;;;4.30;2.58;;;;;;;6.51;54.76;99954.34;5090268;28;20052;-61
2022/04/02 09:03:28;;;;;;;5.93;2.95;;;;;;;6.51;53.85;99959.59;5090419;28;20060;-61
2022/04/02 09:06:32;;;;;;;5.13;2.25;;;;;;;6.55;53.64;99955.13;5090230;28;20095;-61
2022/04/02 09:09:24;;;;;;;4.60;2.38;;;;;;;6.60;53.59;99966.25;5090319;28;20040;-59
2022/04/02 09:12:07;;;;;;;3.08;2.00;;;;;;;6.63;53.77;99966.16;5090512;28;20055;-60
2022/04/02 09:15:16;;;;;;;4.45;2.28;;;;;;;6.70;53.90;99960.66;5089844;28;20052;-60
2022/04/02 09:18:02;;;;;;;3.90;2.20;;;;;;;6.80;53.11;99971.66;5088880;28;20048;-60
2022/04/02 09:20:43;;;;;;;4.43;2.10;;;;;;;6.88;54.84;99970.44;5089916;28;20520;-62
2022/04/02 09:23:16;;;;;;;4.05;1.90;;;;;;;6.94;53.97;99971.97;5090247;28;20052;-61
2022/04/02 09:25:55;;;;;;;2.70;2.00;;;;;;;6.97;51.92;99978.84;5088832;28;20048;-61
2022/04/02 09:28:42;;;;;;;2.97;2.05;;;;;;;7.03;52.46;99976.00;5089856;28;20093;-60
2022/04/02 09:31:15;;;;;;;3.58;2.17;;;;;;;7.13;54.15;99982.56;5088465;28;20052;-60
2022/04/02 09:34:00;;;;;;;2.80;1.73;;;;;;;7.17;51.59;99976.31;5090115;28;20063;-61
2022/04/02 09:36:49;;;;;;;2.60;1.90;;;;;;;7.26;52.24;99982.94;5090319;28;20051;-59
2022/04/02 09:39:22;;;;;;;4.28;2.10;;;;;;;7.35;52.38;99979.09;5089928;28;20048;-60
2022/04/02 09:42:02;;;;;;;3.80;2.10;;;;;;;7.43;51.73;99981.41;5087912;28;20653;-60
2022/04/02 09:44:51;;;;;;;2.78;1.80;;;;;;;7.52;51.39;99988.88;5090130;28;20390;-60
2022/04/02 09:47:53;;;;;;;2.70;1.67;;;;;;;7.60;51.14;99978.13;5089611;28;20073;-61
2022/04/02 09:50:22;;;;;;;3.05;1.85;;;;;;;7.71;52.74;99977.69;5088308;28;20052;-60
2022/04/02 09:53:10;;;;;;;3.10;2.20;;;;;;;7.75;49.93;99981.00;5089880;28;20056;-59
2022/04/02 09:55:52;;;;;;;4.72;2.25;;;;;;;7.87;50.74;99984.88;5088543;28;20500;-60
2022/04/02 09:58:53;;;;;;;3.50;2.17;;;;;;;7.94;50.37;99981.97;5088368;28;20121;-60
2022/04/02 10:01:48;;;;;;;3.47;2.03;;;;;;;8.04;48.55;99981.56;5088150;28;20097;-60
2022/04/02 10:04:23;;;;;;;2.40;1.77;;;;;;;8.14;50.52;99982.84;5088368;28;20056;-61
2022/04/02 10:06:55;;;;;;;2.60;1.80;;;;;;;8.20;50.04;99982.59;5088321;28;20052;-60
2022/04/02 10:09:27;;;;;;;3.50;1.98;;;;;;;8.27;51.18;99972.69;5087819;28;20040;-61
2022/04/02 10:11:55;;;;;;;1.92;1.70;;;;;;;8.34;51.16;99974.13;5089632;28;20071;-61
2022/04/02 10:14:23;;;;;;;1.70;1.60;;;;;;;8.40;50.15;99969.50;5089207;28;20044;-60
2022/04/02 10:17:01;;;;;;;3.22;1.70;;;;;;;8.45;48.32;99980.66;5088221;28;20056;-61
2022/04/02 10:19:29;;;;;;;2.80;1.70;;;;;;;8.52;49.97;99978.63;5089318;28;20048;-59
2022/04/02 10:22:01;;;;;;;1.90;1.58;;;;;;;8.56;49.09;99975.81;5089523;28;20044;-60
2022/04/02 10:24:39;;;;;;;3.83;1.83;;;;;;;8.61;46.70;99980.88;5088134;28;20430;-59
2022/04/02 10:27:10;;;;;;;1.52;1.30;;;;;;;8.68;48.79;99982.25;5089143;28;20105;-60
2022/04/02 10:30:08;;;;;;;2.90;1.70;;;;;;;8.68;46.43;99979.63;5088953;28;20051;-60
2022/04/02 10:33:41;;;;;;;1.80;1.30;;;;;;;8.73;43.43;99971.56;5089144;28;20047;-61
2022/04/02 10:35:44;;;;;;;1.55;1.30;;;;;;;8.82;47.52;99976.38;5088504;28;20055;-60
2022/04/02 10:38:27;;;;;;;2.67;1.52;;;;;;;8.84;45.57;99973.69;5089386;28;20546;-60
2022/04/02 10:40:54;;;;;;;;;;;;;;;8.90;46.64;99973.41;5089701;28;20101;-60
2022/04/02 10:43:25;;;;;;;1.73;1.27;;;;;;;9.01;46.33;99970.28;5089404;28;19923;-62
2022/04/02 10:45:53;;;;;;;1.65;1.13;;;;;;;9.07;46.46;99969.13;5089260;28;20060;-60
2022/04/02 10:48:33;;;;;;;2.25;1.23;;;;;;;9.10;43.39;99969.00;5087832;28;20101;-61
2022/04/02 10:51:01;;;;;;;2.83;1.45;;;;;;;9.17;45.96;99970.44;5087860;28;20048;-60
2022/04/02 10:53:31;;;;;;;3.53;1.58;;;;;;;9.23;45.46;99980.63;5092991;28;20416;-60
2022/04/02 10:56:00;;;;;;;1.92;1.30;;;;;;;9.32;46.53;99974.09;5091601;28;20056;-61
2022/04/02 10:58:36;;;;;;;1.42;1.20;;;;;;;9.40;44.03;99971.09;5092798;28;20122;-60
2022/04/02 11:01:06;;;;;;;1.52;1.13;;;;;;;9.55;45.78;99977.38;5091453;28;20056;-60
2022/04/02 11:03:40;;;;;;;1.35;1.10;;;;;;;9.67;44.57;99968.00;5093038;28;20055;-60
2022/04/02 11:06:08;;;;;;;2.08;1.30;;;;;;;9.87;46.73;99979.31;5092486;28;20056;-61
2022/04/02 11:08:35;;;;;;;3.47;1.30;;;;;;;10.06;47.66;99973.13;5092519;28;20055;-60
2022/04/02 11:11:17;;;;;;;1.60;1.25;;;;;;;10.30;45.00;99971.84;5092228;28;20052;-60
2022/04/02 11:13:44;;;;;;;3.15;1.75;;;;;;;10.63;46.93;99969.31;5092506;28;20123;-60
2022/04/02 11:16:15;;;;;;;2.25;1.45;;;;;;;10.97;46.35;99969.25;5092596;28;20052;-60
2022/04/02 11:19:53;;;;;;;2.10;1.35;;;;;;;11.36;47.37;99969.75;5092427;28;20052;-60
2022/04/02 11:21:43;;;;;;;1.65;1.35;;;;;;;11.73;42.66;99963.19;5091090;28;20102;-61
2022/04/02 11:24:16;;;;;;;3.28;1.20;;;;;;;12.03;43.35;99952.69;5090927;28;20051;-60
2022/04/02 11:26:48;;;;;;;1.50;1.20;;;;;;;12.33;42.82;99962.34;5092620;28;20056;-61
2022/04/02 11:29:18;;;;;;;2.80;1.50;;;;;;;12.60;43.07;99966.88;5091701;28;20051;-61
2022/04/02 11:31:46;;;;;;;1.83;1.27;;;;;;;12.72;42.36;99970.56;5092037;28;20412;-61
2022/04/02 11:34:19;;;;;;;3.17;1.33;;;;;;;12.66;40.53;99970.91;5090540;28;20188;-60
2022/04/02 11:36:47;;;;;;;3.00;1.48;;;;;;;12.48;41.39;99969.34;5090539;28;20048;-63
2022/04/02 11:39:25;;;;;;;1.75;1.30;;;;;;;12.20;40.39;99971.03;5091388;28;20059;-62
2022/04/02 11:41:57;;;;;;;1.90;1.60;;;;;;;11.93;40.25;99968.22;5091643;28;20048;-59
2022/04/02 11:44:35;;;;;;;2.42;1.30;;;;;;;11.65;40.01;99977.75;5090420;28;20055;-60
2022/04/02 11:47:05;;;;;;;3.03;1.40;;;;;;;11.44;41.09;99965.72;5090486;28;20109;-60
2022/04/02 11:49:40;;;;;;;1.60;1.30;;;;;;;11.20;40.35;99974.09;5089823;28;20557;-60
2022/04/02 11:52:08;;;;;;;2.70;1.48;;;;;;;11.13;42.79;99978.00;5091425;28;20389;-61
2022/04/02 11:54:58;;;;;;;1.70;1.40;;;;;;;11.21;40.63;99977.56;5091654;28;20048;-61
2022/04/02 11:57:25;;;;;;;2.13;1.40;;;;;;;11.57;45.28;99968.50;5090198;28;20477;-61
2022/04/02 11:59:57;;;;;;;1.30;1.20;;;;;;;11.89;43.33;99961.44;5089892;28;20052;-60
2022/04/02 12:02:35;;;;;;;2.38;1.10;;;;;;;12.10;40.83;99980.44;5091852;28;20052;-60
2022/04/02 12:05:05;;;;;;;2.47;1.38;;;;;;;12.22;41.00;99968.28;5090579;28;20153;-60